createdAt,value
2023-03-02T00:01:55.130Z,18.50
2023-03-02T00:04:33.560Z,23.15
2023-03-02T00:07:08.095Z,19.77
2023-03-02T00:09:35.474Z,24.98
2023-03-02T00:12:02.478Z,19.67
2023-03-02T00:14:29.407Z,20.90
2023-03-02T00:16:56.504Z,24.33
2023-03-02T00:19:23.518Z,21.60
2023-03-02T00:21:50.615Z,23.88
2023-03-02T00:24:17.685Z,20.50
2023-03-02T00:26:44.937Z,20.48
2023-03-02T00:29:12.046Z,21.08
2023-03-02T00:31:39.243Z,21.25
2023-03-02T00:34:06.322Z,21.73
2023-03-02T00:36:33.250Z,19.00
2023-03-02T00:39:00.256Z,20.17
2023-03-02T00:41:27.412Z,21.55
2023-03-02T00:43:54.468Z,20.08
2023-03-02T00:46:23.028Z,22.27
2023-03-02T00:48:50.446Z,22.15
2023-03-02T00:51:17.884Z,20.52
2023-03-02T00:53:44.951Z,24.48
2023-03-02T00:56:12.241Z,22.73
2023-03-02T00:58:43.968Z,24.35
2023-03-02T01:01:12.077Z,25.95
2023-03-02T01:03:43.760Z,24.38
2023-03-02T01:06:15.472Z,21.08
2023-03-02T01:08:42.493Z,22.42
2023-03-02T01:11:16.717Z,22.27
2023-03-02T01:13:44.209Z,26.63
2023-03-02T01:16:12.112Z,23.10
2023-03-02T01:18:39.915Z,22.08
2023-03-02T01:21:12.309Z,20.58
2023-03-02T01:23:39.248Z,22.90
2023-03-02T01:26:06.411Z,20.52
2023-03-02T01:28:33.806Z,23.83
2023-03-02T01:31:02.775Z,22.38
2023-03-02T01:33:30.674Z,25.40
2023-03-02T01:35:57.656Z,22.65
2023-03-02T01:38:24.727Z,24.02
2023-03-02T01:40:52.051Z,19.40
2023-03-02T01:43:19.141Z,18.45
2023-03-02T01:45:47.664Z,17.80
2023-03-02T01:48:23.916Z,17.67
2023-03-02T01:50:50.979Z,20.98
2023-03-02T01:53:18.195Z,15.40
2023-03-02T01:55:45.937Z,18.27
2023-03-02T01:58:13.821Z,20.20
2023-03-02T02:00:41.157Z,23.38
2023-03-02T02:03:27.814Z,21.38
2023-03-02T02:06:25.210Z,21.77
2023-03-02T02:08:53.015Z,20.13
2023-03-02T02:11:19.984Z,22.45
2023-03-02T02:13:55.346Z,20.00
2023-03-02T02:16:22.392Z,20.70
2023-03-02T02:18:49.534Z,20.45
2023-03-02T02:21:16.473Z,17.80
2023-03-02T02:23:49.383Z,19.60
2023-03-02T02:26:22.841Z,20.27
2023-03-02T02:29:08.435Z,20.02
2023-03-02T02:31:50.663Z,18.58
2023-03-02T02:34:25.209Z,20.45
2023-03-02T02:36:55.338Z,18.48
2023-03-02T02:39:25.150Z,19.77
2023-03-02T02:41:55.700Z,19.35
2023-03-02T02:44:23.418Z,19.83
2023-03-02T02:46:50.383Z,18.38
2023-03-02T02:49:28.726Z,18.67
2023-03-02T02:51:55.711Z,18.10
2023-03-02T02:54:22.898Z,21.98
2023-03-02T02:56:50.612Z,22.20
2023-03-02T02:59:25.569Z,19.05
2023-03-02T03:01:52.899Z,20.80
2023-03-02T03:04:21.624Z,21.85
2023-03-02T03:07:02.485Z,19.98
2023-03-02T03:09:29.878Z,24.75
2023-03-02T03:12:14.975Z,20.50
2023-03-02T03:14:41.996Z,19.30
2023-03-02T03:17:13.550Z,20.60
2023-03-02T03:19:47.808Z,18.42
2023-03-02T03:22:16.385Z,18.83
2023-03-02T03:24:45.521Z,22.65
2023-03-02T03:27:14.840Z,21.95
2023-03-02T03:29:44.765Z,18.45
2023-03-02T03:32:13.849Z,19.98
2023-03-02T03:34:41.719Z,17.95
2023-03-02T03:37:17.436Z,19.65
2023-03-02T03:39:45.171Z,19.35
2023-03-02T03:42:12.219Z,19.30
2023-03-02T03:44:39.202Z,19.27
2023-03-02T03:47:06.435Z,23.20
2023-03-02T03:49:33.663Z,19.83
2023-03-02T03:52:00.783Z,21.98
2023-03-02T03:54:28.055Z,18.92
2023-03-02T03:56:55.365Z,17.48
2023-03-02T03:59:24.156Z,20.65
2023-03-02T04:01:57.223Z,19.65
2023-03-02T04:04:29.257Z,21.90
2023-03-02T04:06:56.833Z,19.58
2023-03-02T04:09:24.686Z,19.67
2023-03-02T04:11:53.593Z,17.98
2023-03-02T04:14:21.482Z,18.23
2023-03-02T04:16:49.019Z,19.27
2023-03-02T04:19:17.668Z,18.02
2023-03-02T04:21:49.097Z,21.95
2023-03-02T04:24:18.496Z,24.27
2023-03-02T04:26:45.623Z,22.08
2023-03-02T04:29:12.777Z,23.02
2023-03-02T04:31:40.771Z,17.58
2023-03-02T04:34:08.610Z,20.70
2023-03-02T04:36:39.018Z,19.38
2023-03-02T04:41:36.020Z,17.25
2023-03-02T04:44:03.111Z,19.10
2023-03-02T04:46:30.517Z,19.35
2023-03-02T04:48:57.634Z,22.27
2023-03-02T04:51:30.212Z,21.30
2023-03-02T04:53:59.237Z,21.58
2023-03-02T04:56:26.180Z,15.70
2023-03-02T04:58:53.363Z,18.95
2023-03-02T05:01:20.265Z,23.45
2023-03-02T05:03:47.372Z,21.63
2023-03-02T05:06:14.519Z,19.23
2023-03-02T05:08:41.611Z,22.17
2023-03-02T05:11:09.045Z,16.35
2023-03-02T05:13:36.273Z,21.42
2023-03-02T05:16:03.475Z,20.33
2023-03-02T05:18:31.293Z,17.05
2023-03-02T05:20:58.368Z,21.52
2023-03-02T05:23:26.015Z,20.27
2023-03-02T05:25:55.943Z,20.63
2023-03-02T05:28:24.144Z,19.50
2023-03-02T05:30:51.291Z,22.80
2023-03-02T05:33:18.621Z,18.75
2023-03-02T05:35:45.599Z,16.83
2023-03-02T05:38:12.613Z,19.92
2023-03-02T05:40:40.467Z,19.63
2023-03-02T05:43:07.498Z,18.73
2023-03-02T05:45:36.410Z,23.15
2023-03-02T05:48:03.612Z,23.10
2023-03-02T05:50:30.759Z,15.77
2023-03-02T05:53:00.235Z,20.42
2023-03-02T05:55:27.289Z,22.48
2023-03-02T05:57:54.693Z,22.10
2023-03-02T06:00:22.023Z,18.13
2023-03-02T06:02:49.053Z,21.05
2023-03-02T06:05:18.384Z,22.10
2023-03-02T06:07:45.509Z,18.55
2023-03-02T06:10:12.754Z,20.27
2023-03-02T06:12:39.809Z,21.23
2023-03-02T06:15:07.308Z,18.27
2023-03-02T06:17:34.699Z,21.00
2023-03-02T06:20:01.646Z,21.90
2023-03-02T06:22:28.652Z,25.33
2023-03-02T06:24:55.580Z,22.88
2023-03-02T06:27:22.557Z,24.60
2023-03-02T06:29:49.772Z,27.58
2023-03-02T06:32:17.037Z,25.20
2023-03-02T06:34:44.408Z,27.13
2023-03-02T06:37:13.016Z,23.90
2023-03-02T06:39:39.956Z,32.05
2023-03-02T06:42:06.941Z,32.03
2023-03-02T06:44:33.886Z,26.02
2023-03-02T06:47:00.829Z,26.75
2023-03-02T06:49:27.936Z,20.00
2023-03-02T06:51:54.934Z,28.25
2023-03-02T06:54:24.080Z,25.63
2023-03-02T06:56:51.213Z,23.13
2023-03-02T06:59:18.232Z,22.88
2023-03-02T07:01:45.202Z,26.02
2023-03-02T07:04:12.247Z,27.45
2023-03-02T07:06:39.251Z,29.48
2023-03-02T07:09:06.195Z,27.02
2023-03-02T07:11:33.403Z,26.80
2023-03-02T07:14:01.121Z,30.38
2023-03-02T07:16:31.262Z,26.55
2023-03-02T07:18:58.353Z,26.33
2023-03-02T07:21:25.364Z,26.98
2023-03-02T07:23:52.571Z,22.58
2023-03-02T07:26:19.514Z,25.35
2023-03-02T07:28:46.532Z,24.42
2023-03-02T07:31:13.839Z,28.38
2023-03-02T07:33:40.894Z,32.28
2023-03-02T07:36:08.644Z,33.72
2023-03-02T07:38:36.581Z,27.45
2023-03-02T07:41:07.230Z,21.88
2023-03-02T07:43:35.678Z,39.15
2023-03-02T07:46:04.549Z,32.92
2023-03-02T07:48:32.438Z,19.83
2023-03-02T07:51:00.624Z,20.10
2023-03-02T07:53:28.076Z,23.85
2023-03-02T07:55:55.277Z,20.67
2023-03-02T07:58:22.284Z,22.52
2023-03-02T08:00:49.312Z,25.40
2023-03-02T08:03:16.447Z,25.02
2023-03-02T08:05:43.668Z,23.63
2023-03-02T08:08:10.640Z,25.92
2023-03-02T08:10:38.045Z,21.50
2023-03-02T08:13:05.292Z,18.20
2023-03-02T08:15:32.619Z,20.33
2023-03-02T08:17:59.715Z,21.17
2023-03-02T08:20:26.702Z,17.10
2023-03-02T08:22:53.712Z,22.73
2023-03-02T08:25:20.680Z,20.60
2023-03-02T08:27:47.733Z,21.50
2023-03-02T08:30:14.906Z,20.13
2023-03-02T08:32:41.969Z,15.55
2023-03-02T08:35:09.239Z,18.48
2023-03-02T08:37:36.395Z,19.33
2023-03-02T08:40:04.043Z,15.20
2023-03-02T08:42:31.038Z,15.93
2023-03-02T08:44:58.021Z,17.63
2023-03-02T08:47:25.026Z,17.95
2023-03-02T08:49:51.988Z,18.42
2023-03-02T08:52:19.169Z,19.65
2023-03-02T08:54:46.449Z,19.38
2023-03-02T08:57:14.550Z,17.27
2023-03-02T08:59:41.548Z,17.85
2023-03-02T09:02:11.411Z,17.08
2023-03-02T09:04:38.729Z,18.27
2023-03-02T09:07:06.048Z,13.80
2023-03-02T09:09:34.378Z,16.90
2023-03-02T09:12:01.987Z,13.85
2023-03-02T09:14:29.137Z,15.77
2023-03-02T09:16:56.156Z,13.50
2023-03-02T09:19:23.218Z,14.05
2023-03-02T09:21:50.370Z,19.27
2023-03-02T09:24:17.375Z,12.60
2023-03-02T09:26:44.566Z,12.88
2023-03-02T09:29:11.960Z,14.02
2023-03-02T09:31:39.457Z,14.73
2023-03-02T09:34:07.172Z,15.18
2023-03-02T09:36:34.779Z,9.63
2023-03-02T09:39:03.825Z,14.90
2023-03-02T09:41:53.963Z,13.05
2023-03-02T09:44:45.261Z,12.68
2023-03-02T09:47:12.272Z,15.63
2023-03-02T09:49:57.956Z,12.43
2023-03-02T09:52:35.864Z,17.00
2023-03-02T09:55:25.068Z,10.88
2023-03-02T09:57:53.135Z,13.00
2023-03-02T10:00:27.083Z,12.63
2023-03-02T10:03:16.503Z,14.43
2023-03-02T10:05:48.967Z,14.70
2023-03-02T10:08:21.768Z,12.23
2023-03-02T10:11:03.450Z,15.75
2023-03-02T10:13:52.512Z,17.45
2023-03-02T10:16:50.266Z,10.00
2023-03-02T10:19:32.588Z,16.90
2023-03-02T10:22:24.460Z,11.65
2023-03-02T10:25:23.905Z,13.77
2023-03-02T10:27:52.782Z,17.30
2023-03-02T10:30:34.116Z,14.63
2023-03-02T10:33:22.999Z,11.52
2023-03-02T10:35:51.216Z,10.27
2023-03-02T10:38:20.293Z,14.48
2023-03-02T10:41:00.380Z,11.80
2023-03-02T10:43:34.775Z,12.10
2023-03-02T10:46:08.904Z,10.65
2023-03-02T10:48:54.629Z,13.30
2023-03-02T10:51:28.821Z,16.98
2023-03-02T10:54:10.485Z,15.43
2023-03-02T10:56:37.740Z,13.18
2023-03-02T10:59:29.807Z,15.18
2023-03-02T11:02:01.761Z,13.90
2023-03-02T11:04:29.630Z,10.68
2023-03-02T11:07:14.919Z,12.40
2023-03-02T11:09:42.013Z,11.20
2023-03-02T11:12:16.506Z,12.65
2023-03-02T11:14:43.620Z,13.38
2023-03-02T11:17:31.168Z,9.50
2023-03-02T11:19:58.216Z,11.05
2023-03-02T11:22:34.731Z,8.70
2023-03-02T11:25:01.969Z,8.95
2023-03-02T11:27:31.240Z,13.65
2023-03-02T11:30:04.819Z,13.88
2023-03-02T11:32:50.479Z,14.95
2023-03-02T11:35:39.413Z,9.98
2023-03-02T11:38:19.787Z,10.50
2023-03-02T11:40:51.872Z,11.63
2023-03-02T11:43:19.130Z,9.32
2023-03-02T11:46:10.914Z,12.07
2023-03-02T11:48:43.201Z,13.77
2023-03-02T11:51:15.039Z,8.75
2023-03-02T11:53:43.546Z,9.98
2023-03-02T11:56:10.558Z,13.80
2023-03-02T11:58:37.955Z,13.40
2023-03-02T12:01:05.103Z,10.25
2023-03-02T12:03:31.945Z,9.73
2023-03-02T12:06:07.269Z,10.25
2023-03-02T12:08:40.470Z,11.68
2023-03-02T12:11:25.662Z,11.32
2023-03-02T12:13:52.759Z,11.00
2023-03-02T12:16:36.810Z,11.07
2023-03-02T12:19:28.998Z,9.95
2023-03-02T12:22:00.578Z,11.50
2023-03-02T12:24:32.396Z,11.73
2023-03-02T12:27:27.335Z,10.80
2023-03-02T12:30:08.898Z,11.18
2023-03-02T12:32:36.162Z,10.13
2023-03-02T12:35:08.877Z,11.15
2023-03-02T12:37:59.181Z,11.55
2023-03-02T12:40:28.946Z,13.18
2023-03-02T12:43:18.833Z,9.75
2023-03-02T12:46:23.288Z,12.07
2023-03-02T12:48:53.624Z,14.07
2023-03-02T12:51:22.462Z,9.02
2023-03-02T12:53:50.596Z,9.52
2023-03-02T12:56:24.528Z,11.70
2023-03-02T12:58:52.286Z,11.18
2023-03-02T13:01:27.866Z,12.85
2023-03-02T13:03:55.213Z,11.15
2023-03-02T13:06:23.866Z,7.40
2023-03-02T13:08:53.467Z,13.45
2023-03-02T13:11:29.053Z,13.93
2023-03-02T13:13:56.743Z,11.02
2023-03-02T13:16:28.447Z,9.73
2023-03-02T13:18:57.854Z,11.68
2023-03-02T13:21:37.968Z,12.02
2023-03-02T13:24:33.304Z,10.75
2023-03-02T13:29:32.045Z,13.95
2023-03-02T13:32:34.026Z,8.93
2023-03-02T13:35:02.638Z,10.73
2023-03-02T13:37:43.625Z,8.68
2023-03-02T13:40:23.353Z,11.65
2023-03-02T13:42:51.798Z,11.93
2023-03-02T13:45:21.879Z,8.35
2023-03-02T13:47:48.939Z,8.93
2023-03-02T13:50:29.404Z,9.15
2023-03-02T13:53:02.505Z,8.30
2023-03-02T13:55:30.053Z,8.43
2023-03-02T13:57:56.967Z,9.05
2023-03-02T14:00:28.677Z,8.73
2023-03-02T14:02:55.724Z,10.20
2023-03-02T14:05:24.497Z,8.20
2023-03-02T14:07:51.649Z,12.80
2023-03-02T14:10:19.065Z,9.77
2023-03-02T14:12:54.006Z,8.25
2023-03-02T14:15:21.055Z,14.38
2023-03-02T14:17:49.438Z,8.23
2023-03-02T14:20:21.029Z,9.52
2023-03-02T14:22:48.216Z,8.48
2023-03-02T14:25:15.497Z,12.25
2023-03-02T14:27:42.879Z,14.25
2023-03-02T14:30:20.365Z,11.55
2023-03-02T14:32:47.439Z,11.50
2023-03-02T14:35:15.950Z,12.63
2023-03-02T14:37:47.603Z,9.40
2023-03-02T14:40:18.885Z,9.55
2023-03-02T14:42:46.420Z,11.40
2023-03-02T14:45:13.592Z,8.90
2023-03-02T14:47:40.541Z,11.35
2023-03-02T14:50:07.960Z,11.65
2023-03-02T14:52:44.536Z,14.30
2023-03-02T14:55:37.781Z,8.93
2023-03-02T14:58:11.006Z,10.07
2023-03-02T15:00:38.012Z,10.43
2023-03-02T15:03:05.025Z,14.95
2023-03-02T15:05:32.245Z,10.65
2023-03-02T15:07:59.246Z,10.98
2023-03-02T15:10:26.225Z,8.07
2023-03-02T15:12:54.973Z,12.70
2023-03-02T15:15:23.062Z,13.55
2023-03-02T15:17:51.605Z,12.30
2023-03-02T15:20:18.529Z,10.10
2023-03-02T15:22:46.625Z,15.60
2023-03-02T15:25:13.661Z,11.80
2023-03-02T15:27:41.635Z,9.18
2023-03-02T15:30:09.241Z,9.02
2023-03-02T15:32:36.741Z,11.50
2023-03-02T15:35:04.673Z,9.35
2023-03-02T15:37:31.889Z,11.32
2023-03-02T15:40:01.435Z,12.65
2023-03-02T15:42:28.404Z,11.07
2023-03-02T15:44:55.362Z,10.57
2023-03-02T15:47:22.570Z,13.68
2023-03-02T15:49:50.180Z,12.38
2023-03-02T15:52:17.221Z,8.65
2023-03-02T15:54:44.164Z,9.43
2023-03-02T15:57:11.574Z,8.98
2023-03-02T15:59:38.618Z,13.50
2023-03-02T16:02:05.641Z,11.00
2023-03-02T16:04:32.826Z,11.60
2023-03-02T16:06:59.863Z,10.23
2023-03-02T16:09:29.039Z,12.02
2023-03-02T16:11:56.257Z,11.43
2023-03-02T16:14:23.447Z,11.65
2023-03-02T16:16:50.627Z,7.88
2023-03-02T16:19:19.185Z,14.02
2023-03-02T16:21:47.318Z,9.82
2023-03-02T16:24:16.378Z,10.55
2023-03-02T16:26:43.619Z,13.32
2023-03-02T16:29:10.881Z,11.40
2023-03-02T16:31:39.250Z,10.43
2023-03-02T16:34:08.861Z,9.25
2023-03-02T16:36:37.009Z,11.32
2023-03-02T16:39:04.416Z,9.13
2023-03-02T16:41:31.390Z,9.75
2023-03-02T16:43:59.153Z,12.77
2023-03-02T16:46:27.790Z,11.45
2023-03-02T16:48:55.140Z,10.60
2023-03-02T16:51:22.209Z,12.50
2023-03-02T16:53:49.645Z,16.25
2023-03-02T16:56:16.845Z,13.93
2023-03-02T16:58:43.928Z,15.25
2023-03-02T17:01:13.887Z,10.73
2023-03-02T17:03:41.034Z,12.57
2023-03-02T17:06:09.590Z,10.70
2023-03-02T17:08:37.007Z,17.92
2023-03-02T17:11:04.106Z,17.67
2023-03-02T17:13:31.464Z,20.60
2023-03-02T17:15:58.583Z,20.42
2023-03-02T17:18:27.717Z,21.15
2023-03-02T17:20:57.506Z,19.67
2023-03-02T17:23:25.164Z,22.67
2023-03-02T17:25:54.025Z,23.15
2023-03-02T17:28:21.037Z,24.50
2023-03-02T17:30:50.390Z,20.40
2023-03-02T17:33:18.368Z,26.52
2023-03-02T17:35:46.468Z,24.10
2023-03-02T17:38:15.169Z,22.33
2023-03-02T17:40:42.758Z,21.35
2023-03-02T17:43:10.924Z,24.60
2023-03-02T17:45:38.209Z,19.92
2023-03-02T17:48:05.642Z,23.00
2023-03-02T17:50:32.796Z,24.30
2023-03-02T17:53:00.397Z,22.38
2023-03-02T17:55:27.487Z,20.80
2023-03-02T17:57:54.579Z,21.60
2023-03-02T18:00:22.665Z,25.80
2023-03-02T18:02:50.274Z,26.42
2023-03-02T18:05:20.017Z,25.17
2023-03-02T18:07:47.369Z,29.23
2023-03-02T18:10:14.406Z,30.25
2023-03-02T18:12:41.501Z,33.42
2023-03-02T18:15:09.273Z,31.52
2023-03-02T18:17:36.348Z,27.42
2023-03-02T18:20:03.816Z,34.33
2023-03-02T18:22:31.003Z,26.35
2023-03-02T18:24:58.090Z,25.98
2023-03-02T18:27:25.207Z,29.95
2023-03-02T18:29:52.298Z,25.65
2023-03-02T18:32:20.797Z,26.35
2023-03-02T18:34:48.725Z,25.40
2023-03-02T18:37:15.806Z,26.58
2023-03-02T18:39:43.759Z,29.33
2023-03-02T18:42:12.656Z,25.63
2023-03-02T18:44:39.791Z,29.20
2023-03-02T18:47:09.697Z,26.58
2023-03-02T18:49:38.348Z,28.05
2023-03-02T18:52:07.029Z,35.33
2023-03-02T18:54:34.087Z,30.80
2023-03-02T18:57:01.806Z,30.17
2023-03-02T18:59:29.971Z,35.92
2023-03-02T19:01:57.750Z,31.33
2023-03-02T19:04:26.794Z,29.13
2023-03-02T19:06:55.742Z,34.80
2023-03-02T19:09:23.740Z,26.55
2023-03-02T19:11:52.069Z,30.60
2023-03-02T19:14:19.370Z,27.92
2023-03-02T19:16:46.959Z,30.17
2023-03-02T19:19:14.182Z,28.63
2023-03-02T19:21:41.361Z,30.08
2023-03-02T19:24:09.391Z,28.05
2023-03-02T19:26:36.450Z,27.30
2023-03-02T19:29:06.326Z,28.80
2023-03-02T19:31:33.626Z,27.40
2023-03-02T19:34:00.730Z,29.92
2023-03-02T19:36:27.819Z,27.08
2023-03-02T19:38:54.799Z,29.02
2023-03-02T19:41:22.205Z,27.58
2023-03-02T19:43:49.460Z,37.45
2023-03-02T19:46:17.288Z,33.65
2023-03-02T19:48:44.366Z,40.88
2023-03-02T19:51:13.822Z,45.90
2023-03-02T19:53:41.409Z,34.67
2023-03-02T19:56:12.028Z,29.63
2023-03-02T19:58:47.037Z,24.60
2023-03-02T20:01:16.896Z,39.08
2023-03-02T20:03:44.432Z,33.60
2023-03-02T20:06:11.523Z,46.15
2023-03-02T20:08:38.683Z,40.90
2023-03-02T20:11:05.715Z,57.60
2023-03-02T20:13:33.310Z,51.17
2023-03-02T20:16:00.876Z,44.97
2023-03-02T20:18:28.051Z,33.70
2023-03-02T20:20:55.063Z,39.45
2023-03-02T20:23:22.420Z,47.20
2023-03-02T20:25:50.112Z,32.42
2023-03-02T20:28:18.383Z,34.83
2023-03-02T20:30:48.255Z,36.17
2023-03-02T20:33:15.815Z,39.90
2023-03-02T20:35:43.765Z,34.50
2023-03-02T20:38:25.431Z,32.00
2023-03-02T20:40:53.327Z,34.85
2023-03-02T20:43:20.783Z,32.70
2023-03-02T20:45:47.820Z,29.58
2023-03-02T20:48:14.804Z,31.40
2023-03-02T20:50:41.883Z,31.15
2023-03-02T20:53:09.668Z,31.27
2023-03-02T20:55:36.874Z,33.38
2023-03-02T20:58:05.466Z,25.95
2023-03-02T21:00:32.955Z,31.65
2023-03-02T21:02:59.981Z,26.42
2023-03-02T21:05:27.622Z,40.42
2023-03-02T21:07:54.775Z,36.58
2023-03-02T21:10:28.144Z,39.72
2023-03-02T21:12:55.284Z,39.90
2023-03-02T21:15:23.955Z,35.92
2023-03-02T21:17:51.807Z,45.00
2023-03-02T21:20:18.847Z,37.40
2023-03-02T21:22:46.794Z,39.65
2023-03-02T21:25:13.941Z,39.20
2023-03-02T21:27:41.180Z,34.53
2023-03-02T21:30:09.477Z,37.88
2023-03-02T21:32:36.387Z,35.50
2023-03-02T21:35:03.362Z,36.35
2023-03-02T21:37:30.569Z,37.80
2023-03-02T21:39:59.090Z,35.58
2023-03-02T21:42:26.619Z,36.58
2023-03-02T21:44:56.038Z,32.95
2023-03-02T21:47:23.090Z,37.42
2023-03-02T21:49:50.059Z,33.63
2023-03-02T21:52:17.001Z,35.22
2023-03-02T21:54:44.103Z,32.63
2023-03-02T21:57:11.156Z,31.30
2023-03-02T21:59:38.141Z,39.35
2023-03-02T22:02:05.208Z,38.88
2023-03-02T22:04:33.704Z,40.03
2023-03-02T22:07:01.575Z,32.50
2023-03-02T22:09:28.697Z,32.75
2023-03-02T22:11:55.721Z,33.38
2023-03-02T22:14:22.701Z,31.52
2023-03-02T22:16:49.769Z,40.22
2023-03-02T22:19:23.457Z,35.03
2023-03-02T22:21:50.766Z,43.00
2023-03-02T22:24:23.512Z,41.90
2023-03-02T22:27:02.144Z,38.67
2023-03-02T22:29:30.064Z,40.78
2023-03-02T22:31:59.412Z,42.28
2023-03-02T22:34:30.162Z,46.08
2023-03-02T22:37:03.200Z,39.03
2023-03-02T22:39:32.320Z,42.72
2023-03-02T22:42:10.349Z,44.15
2023-03-02T22:44:39.099Z,50.38
2023-03-02T22:47:15.724Z,50.40
2023-03-02T22:49:43.158Z,49.97
2023-03-02T22:52:20.224Z,44.03
2023-03-02T22:54:47.395Z,46.38
2023-03-02T22:57:29.125Z,34.92
2023-03-02T23:00:30.881Z,36.83
2023-03-02T23:02:58.060Z,39.13
2023-03-02T23:05:26.299Z,36.42
2023-03-02T23:08:17.096Z,33.38
2023-03-02T23:10:44.878Z,38.88
2023-03-02T23:13:12.676Z,33.30
2023-03-02T23:15:41.744Z,28.15
2023-03-02T23:18:26.948Z,32.08
2023-03-02T23:20:54.226Z,37.03
2023-03-02T23:23:25.096Z,38.83
2023-03-02T23:25:52.142Z,32.42
2023-03-02T23:28:19.174Z,33.05
2023-03-02T23:30:47.667Z,28.95
2023-03-02T23:33:14.645Z,30.98
2023-03-02T23:35:42.175Z,34.35
2023-03-02T23:38:09.189Z,36.85
2023-03-02T23:40:36.169Z,35.63
2023-03-02T23:43:03.252Z,34.75
2023-03-02T23:45:30.293Z,30.90
2023-03-02T23:47:59.215Z,32.72
2023-03-02T23:50:26.317Z,35.97
2023-03-02T23:52:53.391Z,33.17
2023-03-02T23:55:20.368Z,35.22
2023-03-02T23:57:47.506Z,41.38
